createdAt,value
2018-08-04T00:00:27.478Z,48.12
2018-08-04T00:01:30.888Z,48.14
2018-08-04T00:02:34.360Z,48.50
2018-08-04T00:03:37.770Z,47.94
2018-08-04T00:04:41.169Z,47.88
2018-08-04T00:05:44.598Z,48.02
2018-08-04T00:06:47.974Z,48.01
2018-08-04T00:07:51.414Z,47.94
2018-08-04T00:08:54.800Z,47.81
2018-08-04T00:09:58.224Z,48.18
2018-08-04T00:11:01.602Z,48.00
2018-08-04T00:12:05.006Z,48.39
2018-08-04T00:13:08.432Z,47.75
2018-08-04T00:14:12.136Z,48.51
2018-08-04T00:15:15.577Z,47.95
2018-08-04T00:16:18.996Z,47.86
2018-08-04T00:17:22.417Z,47.99
2018-08-04T00:18:25.853Z,48.53
2018-08-04T00:19:29.251Z,48.49
2018-08-04T00:20:32.672Z,48.46
2018-08-04T00:21:36.311Z,48.45
2018-08-04T00:22:39.741Z,48.52
2018-08-04T00:23:43.158Z,48.32
2018-08-04T00:24:46.538Z,48.07
2018-08-04T00:25:49.928Z,48.18
2018-08-04T00:26:53.312Z,48.36
2018-08-04T00:27:56.742Z,48.45
2018-08-04T00:29:01.335Z,48.51
2018-08-04T00:30:06.790Z,48.00
2018-08-04T00:31:10.239Z,48.62
2018-08-04T00:32:13.679Z,48.32
2018-08-04T00:33:17.108Z,48.32
2018-08-04T00:34:20.515Z,47.96
2018-08-04T00:35:23.906Z,48.62
2018-08-04T00:36:27.388Z,48.52
2018-08-04T00:37:30.830Z,48.39
2018-08-04T00:38:34.236Z,48.02
2018-08-04T00:39:37.639Z,48.56
2018-08-04T00:40:41.068Z,48.50
2018-08-04T00:41:44.469Z,48.53
2018-08-04T00:42:47.906Z,48.07
2018-08-04T00:43:51.775Z,48.24
2018-08-04T00:44:55.149Z,48.64
2018-08-04T00:45:58.601Z,47.96
2018-08-04T00:47:02.039Z,48.11
2018-08-04T00:48:05.699Z,47.94
2018-08-04T00:49:09.127Z,48.50
2018-08-04T00:50:12.558Z,48.13
2018-08-04T00:51:15.990Z,48.52
2018-08-04T00:52:19.448Z,48.32
2018-08-04T00:53:22.865Z,48.49
2018-08-04T00:54:26.282Z,48.39
2018-08-04T00:55:29.699Z,48.67
2018-08-04T00:56:33.122Z,48.34
2018-08-04T00:57:36.552Z,48.32
2018-08-04T00:58:40.093Z,48.00
2018-08-04T00:59:43.494Z,47.88
2018-08-04T01:00:46.918Z,48.58
2018-08-04T01:01:50.340Z,48.08
2018-08-04T01:02:53.734Z,48.54
2018-08-04T01:03:57.113Z,48.22
2018-08-04T01:05:00.493Z,48.65
2018-08-04T01:06:03.912Z,48.66
2018-08-04T01:07:07.746Z,48.40
2018-08-04T01:08:11.156Z,48.67
2018-08-04T01:09:14.558Z,48.56
2018-08-04T01:10:17.961Z,48.01
2018-08-04T01:11:21.358Z,48.18
2018-08-04T01:12:24.757Z,47.85
2018-08-04T01:13:28.180Z,48.63
2018-08-04T01:14:31.575Z,47.98
2018-08-04T01:15:34.995Z,48.06
2018-08-04T01:16:38.424Z,48.13
2018-08-04T01:17:41.867Z,48.79
2018-08-04T01:18:45.283Z,48.46
2018-08-04T01:19:48.713Z,48.21
2018-08-04T01:20:52.119Z,48.79
2018-08-04T01:21:55.555Z,48.71
2018-08-04T01:22:58.925Z,48.75
2018-08-04T01:24:02.363Z,48.48
2018-08-04T01:25:06.832Z,48.60
2018-08-04T01:26:10.268Z,48.76
2018-08-04T01:27:13.653Z,48.53
2018-08-04T01:28:17.044Z,48.77
2018-08-04T01:29:20.455Z,48.21
2018-08-04T01:30:23.849Z,48.13
2018-08-04T01:31:27.427Z,48.60
2018-08-04T01:32:30.842Z,48.45
2018-08-04T01:33:34.254Z,48.46
2018-08-04T01:34:37.648Z,48.16
2018-08-04T01:35:41.071Z,48.23
2018-08-04T01:36:44.515Z,48.77
2018-08-04T01:37:47.890Z,48.60
2018-08-04T01:38:51.280Z,48.58
2018-08-04T01:39:54.780Z,48.61
2018-08-04T01:40:58.193Z,48.73
2018-08-04T01:42:01.601Z,48.72
2018-08-04T01:43:05.054Z,48.63
2018-08-04T01:44:08.495Z,48.53
2018-08-04T01:45:11.899Z,48.75
2018-08-04T01:46:15.327Z,48.18
2018-08-04T01:47:18.697Z,48.12
2018-08-04T01:48:22.108Z,48.73
2018-08-04T01:49:25.484Z,48.85
2018-08-04T01:50:28.906Z,48.89
2018-08-04T01:51:32.300Z,48.75
2018-08-04T01:52:35.710Z,48.42
2018-08-04T01:53:39.122Z,48.33
2018-08-04T01:54:42.527Z,48.80
2018-08-04T01:55:45.940Z,48.17
2018-08-04T01:56:49.330Z,48.73
2018-08-04T01:57:52.748Z,48.49
2018-08-04T01:58:56.144Z,48.58
2018-08-04T01:59:59.559Z,48.20
2018-08-04T02:01:02.969Z,48.54
2018-08-04T02:02:06.427Z,48.81
2018-08-04T02:03:09.857Z,48.45
2018-08-04T02:04:13.288Z,48.58
2018-08-04T02:05:16.738Z,48.82
2018-08-04T02:06:20.139Z,48.23
2018-08-04T02:07:23.574Z,48.92
2018-08-04T02:08:27.084Z,48.86
2018-08-04T02:09:30.491Z,48.21
2018-08-04T02:10:33.910Z,48.79
2018-08-04T02:11:37.336Z,48.33
2018-08-04T02:12:40.741Z,48.49
2018-08-04T02:13:44.172Z,48.88
2018-08-04T02:14:47.600Z,48.87
2018-08-04T02:15:50.979Z,48.33
2018-08-04T02:16:54.396Z,48.63
2018-08-04T02:17:57.808Z,48.90
2018-08-04T02:19:01.217Z,48.56
2018-08-04T02:20:04.720Z,47.88
2018-08-04T02:21:08.136Z,48.18
2018-08-04T02:22:11.540Z,48.63
2018-08-04T02:23:14.947Z,48.55
2018-08-04T02:24:18.390Z,48.89
2018-08-04T02:25:21.818Z,48.21
2018-08-04T02:26:25.226Z,48.31
2018-08-04T02:27:28.761Z,48.53
2018-08-04T02:28:32.149Z,48.88
2018-08-04T02:29:35.571Z,48.87
2018-08-04T02:30:38.972Z,48.96
2018-08-04T02:31:42.374Z,48.75
2018-08-04T02:32:45.768Z,48.71
2018-08-04T02:33:49.160Z,48.21
2018-08-04T02:34:52.550Z,48.73
2018-08-04T02:35:56.137Z,48.82
2018-08-04T02:36:59.576Z,48.24
2018-08-04T02:38:02.988Z,49.00
2018-08-04T02:39:08.577Z,48.50
2018-08-04T02:40:12.020Z,48.36
2018-08-04T02:41:15.410Z,48.44
2018-08-04T02:42:18.829Z,48.74
2018-08-04T02:43:22.250Z,48.84
2018-08-04T02:44:25.699Z,48.72
2018-08-04T02:45:29.117Z,48.80
2018-08-04T02:46:32.653Z,48.74
2018-08-04T02:47:36.074Z,48.00
2018-08-04T02:48:39.450Z,48.66
2018-08-04T02:49:42.850Z,48.86
2018-08-04T02:50:46.271Z,49.02
2018-08-04T02:51:49.682Z,48.32
2018-08-04T02:52:53.077Z,48.50
2018-08-04T02:53:56.476Z,48.38
2018-08-04T02:54:59.862Z,48.78
2018-08-04T02:56:03.292Z,48.37
2018-08-04T02:57:06.738Z,48.33
2018-08-04T02:58:10.136Z,48.69
2018-08-04T02:59:13.552Z,48.72
2018-08-04T03:00:16.949Z,48.44
2018-08-04T03:01:20.360Z,48.28
2018-08-04T03:02:23.881Z,48.68
2018-08-04T03:03:27.303Z,48.60
2018-08-04T03:04:30.762Z,48.49
2018-08-04T03:05:34.140Z,48.99
2018-08-04T03:06:37.559Z,48.65
2018-08-04T03:07:40.976Z,48.64
2018-08-04T03:08:44.387Z,48.91
2018-08-04T03:09:47.826Z,48.36
2018-08-04T03:10:51.216Z,48.91
2018-08-04T03:11:54.606Z,48.42
2018-08-04T03:12:58.004Z,48.85
2018-08-04T03:14:01.409Z,48.62
2018-08-04T03:15:05.316Z,48.92
2018-08-04T03:16:08.705Z,48.48
2018-08-04T03:17:12.130Z,49.01
2018-08-04T03:18:15.565Z,48.29
2018-08-04T03:19:19.007Z,48.97
2018-08-04T03:20:22.420Z,48.34
2018-08-04T03:21:25.827Z,48.21
2018-08-04T03:22:29.240Z,48.42
2018-08-04T03:23:32.694Z,48.87
2018-08-04T03:24:36.154Z,48.30
2018-08-04T03:25:39.643Z,49.14
2018-08-04T03:26:43.042Z,48.97
2018-08-04T03:27:46.430Z,48.71
2018-08-04T03:28:49.837Z,48.34
2018-08-04T03:29:53.276Z,48.74
2018-08-04T03:30:56.698Z,48.33
2018-08-04T03:32:00.093Z,48.33
2018-08-04T03:33:03.502Z,48.41
2018-08-04T03:34:06.918Z,48.64
2018-08-04T03:35:10.337Z,48.50
2018-08-04T03:36:13.753Z,48.64
2018-08-04T03:37:17.186Z,48.44
2018-08-04T03:38:20.610Z,48.94
2018-08-04T03:39:24.016Z,48.52
2018-08-04T03:40:27.441Z,49.05
2018-08-04T03:41:30.820Z,48.31
2018-08-04T03:42:34.222Z,48.92
2018-08-04T03:43:37.612Z,48.32
2018-08-04T03:44:41.039Z,48.84
2018-08-04T03:45:44.452Z,48.47
2018-08-04T03:46:47.848Z,49.20
2018-08-04T03:47:51.256Z,49.10
2018-08-04T03:48:54.773Z,49.03
2018-08-04T03:49:58.185Z,48.65
2018-08-04T03:51:01.621Z,49.01
2018-08-04T03:52:05.034Z,48.98
2018-08-04T03:53:08.471Z,48.72
2018-08-04T03:54:11.908Z,48.61
2018-08-04T03:55:15.309Z,48.38
2018-08-04T03:56:18.692Z,48.77
2018-08-04T03:57:22.107Z,48.55
2018-08-04T03:58:25.485Z,48.32
2018-08-04T03:59:28.868Z,48.32
2018-08-04T04:00:32.288Z,48.97
2018-08-04T04:01:35.688Z,48.99
2018-08-04T04:02:39.076Z,49.05
2018-08-04T04:03:42.735Z,48.99
2018-08-04T04:04:46.140Z,48.34
2018-08-04T04:05:49.560Z,48.44
2018-08-04T04:06:53.196Z,48.41
2018-08-04T04:07:56.625Z,48.33
2018-08-04T04:09:00.042Z,48.84
2018-08-04T04:10:03.548Z,48.98
2018-08-04T04:11:06.965Z,48.92
2018-08-04T04:12:10.394Z,48.46
2018-08-04T04:13:13.793Z,48.34
2018-08-04T04:14:17.193Z,48.97
2018-08-04T04:15:20.613Z,48.76
2018-08-04T04:16:23.990Z,48.47
2018-08-04T04:17:30.623Z,48.65
2018-08-04T04:18:33.996Z,48.46
2018-08-04T04:19:37.374Z,48.99
2018-08-04T04:20:40.788Z,48.78
2018-08-04T04:21:44.172Z,48.87
2018-08-04T04:22:47.825Z,49.01
2018-08-04T04:23:51.241Z,48.41
2018-08-04T04:24:54.779Z,48.78
2018-08-04T04:25:58.208Z,49.05
2018-08-04T04:27:01.617Z,49.01
2018-08-04T04:28:05.313Z,48.67
2018-08-04T04:29:08.704Z,49.06
2018-08-04T04:30:12.598Z,48.54
2018-08-04T04:31:16.026Z,48.32
2018-08-04T04:32:19.428Z,48.46
2018-08-04T04:33:22.801Z,48.94
2018-08-04T04:34:26.257Z,48.90
2018-08-04T04:35:29.680Z,48.91
2018-08-04T04:36:33.089Z,48.41
2018-08-04T04:37:36.492Z,48.63
2018-08-04T04:38:39.899Z,48.62
2018-08-04T04:39:43.296Z,48.98
2018-08-04T04:40:46.702Z,48.98
2018-08-04T04:41:50.128Z,49.01
2018-08-04T04:42:53.536Z,49.32
2018-08-04T04:43:56.947Z,48.37
2018-08-04T04:45:00.313Z,49.39
2018-08-04T04:46:03.769Z,49.03
2018-08-04T04:47:07.183Z,48.36
2018-08-04T04:48:10.585Z,48.69
2018-08-04T04:49:13.993Z,48.66
2018-08-04T04:50:17.378Z,49.02
2018-08-04T04:51:20.758Z,48.32
2018-08-04T04:52:24.246Z,48.45
2018-08-04T04:53:27.663Z,48.33
2018-08-04T04:54:31.094Z,48.71
2018-08-04T04:55:34.478Z,48.46
2018-08-04T04:56:37.863Z,48.91
2018-08-04T04:57:41.272Z,48.70
2018-08-04T04:58:44.658Z,48.43
2018-08-04T04:59:48.045Z,48.87
2018-08-04T05:00:51.446Z,48.88
2018-08-04T05:01:54.865Z,48.62
2018-08-04T05:02:58.288Z,48.34
2018-08-04T05:04:01.704Z,48.94
2018-08-04T05:05:06.805Z,49.03
2018-08-04T05:06:10.208Z,48.46
2018-08-04T05:07:13.596Z,48.40
2018-08-04T05:08:17.023Z,48.31
2018-08-04T05:09:20.438Z,48.38
2018-08-04T05:10:23.869Z,48.46
2018-08-04T05:11:27.274Z,48.57
2018-08-04T05:12:30.684Z,48.48
2018-08-04T05:13:34.117Z,48.37
2018-08-04T05:14:37.518Z,49.11
2018-08-04T05:15:40.883Z,48.52
2018-08-04T05:16:44.291Z,48.68
2018-08-04T05:17:47.681Z,48.18
2018-08-04T05:18:51.102Z,49.04
2018-08-04T05:19:54.504Z,48.50
2018-08-04T05:20:57.897Z,48.96
2018-08-04T05:22:01.290Z,49.02
2018-08-04T05:23:04.747Z,48.46
2018-08-04T05:24:08.188Z,48.38
2018-08-04T05:25:11.596Z,48.43
2018-08-04T05:26:15.019Z,48.90
2018-08-04T05:27:18.422Z,48.51
2018-08-04T05:28:21.836Z,48.45
2018-08-04T05:29:25.258Z,48.42
2018-08-04T05:30:28.625Z,48.77
2018-08-04T05:31:32.043Z,48.48
2018-08-04T05:32:35.503Z,49.03
2018-08-04T05:33:38.893Z,48.62
2018-08-04T05:34:43.289Z,48.39
2018-08-04T05:35:46.684Z,48.47
2018-08-04T05:36:50.093Z,48.53
2018-08-04T05:37:53.468Z,49.00
2018-08-04T05:38:56.875Z,48.50
2018-08-04T05:40:00.290Z,48.88
2018-08-04T05:41:03.674Z,48.78
2018-08-04T05:42:07.426Z,48.71
2018-08-04T05:43:10.870Z,49.01
2018-08-04T05:44:14.214Z,48.81
2018-08-04T05:45:17.631Z,49.03
2018-08-04T05:46:24.064Z,48.41
2018-08-04T05:47:27.495Z,48.74
2018-08-04T05:48:30.888Z,48.25
2018-08-04T05:49:34.276Z,48.86
2018-08-04T05:50:37.693Z,49.13
2018-08-04T05:51:41.100Z,48.72
2018-08-04T05:52:44.658Z,49.07
2018-08-04T05:53:48.095Z,49.03
2018-08-04T05:54:51.620Z,48.80
2018-08-04T05:55:55.028Z,48.50
2018-08-04T05:56:58.435Z,49.12
2018-08-04T05:58:01.864Z,48.39
2018-08-04T05:59:05.261Z,48.95
2018-08-04T06:00:09.592Z,49.10
2018-08-04T06:01:13.424Z,48.40
2018-08-04T06:02:16.835Z,48.60
2018-08-04T06:03:20.243Z,48.40
2018-08-04T06:04:23.717Z,48.40
2018-08-04T06:05:27.109Z,48.97
2018-08-04T06:06:30.514Z,48.53
2018-08-04T06:07:33.919Z,49.09
2018-08-04T06:08:37.550Z,48.51
2018-08-04T06:09:40.936Z,48.39
2018-08-04T06:10:44.336Z,49.04
2018-08-04T06:11:47.756Z,48.79
2018-08-04T06:12:51.164Z,49.09
2018-08-04T06:13:54.580Z,48.84
2018-08-04T06:14:57.973Z,48.44
2018-08-04T06:16:01.382Z,48.96
2018-08-04T06:17:04.808Z,48.40
2018-08-04T06:18:08.440Z,48.41
2018-08-04T06:19:11.854Z,49.29
2018-08-04T06:20:15.260Z,48.43
2018-08-04T06:21:18.636Z,48.75
2018-08-04T06:22:22.054Z,49.02
2018-08-04T06:23:25.467Z,48.65
2018-08-04T06:24:28.907Z,49.03
2018-08-04T06:25:32.328Z,48.71
2018-08-04T06:26:35.738Z,48.58
2018-08-04T06:27:39.140Z,48.77
2018-08-04T06:28:42.529Z,49.46
2018-08-04T06:29:45.917Z,49.13
2018-08-04T06:30:49.371Z,49.10
2018-08-04T06:31:52.779Z,48.55
2018-08-04T06:32:56.239Z,48.99
2018-08-04T06:33:59.668Z,48.33
2018-08-04T06:35:03.078Z,48.42
2018-08-04T06:36:06.506Z,48.91
2018-08-04T06:37:09.896Z,48.60
2018-08-04T06:38:13.317Z,49.41
2018-08-04T06:39:16.730Z,49.12
2018-08-04T06:40:20.105Z,48.58
2018-08-04T06:41:23.508Z,48.51
2018-08-04T06:42:26.888Z,48.57
2018-08-04T06:43:30.300Z,48.46
2018-08-04T06:44:33.700Z,48.50
2018-08-04T06:45:37.093Z,48.62
2018-08-04T06:46:40.477Z,48.45
2018-08-04T06:47:43.926Z,48.81
2018-08-04T06:48:47.320Z,48.49
2018-08-04T06:49:50.704Z,48.82
2018-08-04T06:50:54.115Z,48.82
2018-08-04T06:51:57.498Z,48.66
2018-08-04T06:53:00.979Z,48.51
2018-08-04T06:54:04.500Z,48.90
2018-08-04T06:55:07.946Z,49.17
2018-08-04T06:56:11.336Z,48.67
2018-08-04T06:57:14.775Z,49.00
2018-08-04T06:58:18.197Z,48.62
2018-08-04T06:59:21.621Z,49.06
2018-08-04T07:00:25.083Z,48.56
2018-08-04T07:01:28.511Z,48.57
2018-08-04T07:02:31.940Z,48.61
2018-08-04T07:03:35.347Z,48.61
2018-08-04T07:04:38.744Z,49.03
2018-08-04T07:05:42.190Z,49.10
2018-08-04T07:06:45.608Z,48.97
2018-08-04T07:07:49.115Z,49.06
2018-08-04T07:08:52.501Z,49.20
2018-08-04T07:09:56.287Z,49.31
2018-08-04T07:10:59.676Z,48.82
2018-08-04T07:12:03.058Z,48.89
2018-08-04T07:13:06.520Z,48.65
2018-08-04T07:14:09.989Z,48.86
2018-08-04T07:15:13.435Z,48.59
2018-08-04T07:16:16.852Z,48.52
2018-08-04T07:17:20.248Z,48.77
2018-08-04T07:18:23.696Z,48.25
2018-08-04T07:19:27.099Z,49.05
2018-08-04T07:20:30.530Z,48.43
2018-08-04T07:21:34.189Z,48.46
2018-08-04T07:22:37.605Z,49.00
2018-08-04T07:23:41.020Z,48.44
2018-08-04T07:24:44.453Z,49.12
2018-08-04T07:25:47.888Z,49.18
2018-08-04T07:26:51.303Z,48.91
2018-08-04T07:27:54.690Z,48.46
2018-08-04T07:28:58.158Z,49.09
2018-08-04T07:30:01.624Z,48.81
2018-08-04T07:31:05.144Z,48.44
2018-08-04T07:32:08.514Z,48.79
2018-08-04T07:33:11.930Z,48.76
2018-08-04T07:34:15.395Z,49.16
2018-08-04T07:35:18.802Z,48.99
2018-08-04T07:36:22.531Z,49.06
2018-08-04T07:37:25.940Z,48.48
2018-08-04T07:38:29.342Z,48.80
2018-08-04T07:39:32.741Z,48.44
2018-08-04T07:40:36.211Z,48.34
2018-08-04T07:41:39.809Z,48.56
2018-08-04T07:42:43.185Z,48.63
2018-08-04T07:43:46.562Z,48.36
2018-08-04T07:44:49.976Z,48.79
2018-08-04T07:45:53.367Z,49.00
2018-08-04T07:46:56.745Z,49.07
2018-08-04T07:48:00.149Z,48.38
2018-08-04T07:49:03.585Z,48.45
2018-08-04T07:50:07.454Z,48.47
2018-08-04T07:51:10.904Z,48.97
2018-08-04T07:52:14.290Z,48.68
2018-08-04T07:53:17.704Z,48.76
2018-08-04T07:54:21.091Z,48.90
2018-08-04T07:55:24.506Z,48.18
2018-08-04T07:56:28.017Z,49.09
2018-08-04T07:57:31.472Z,49.14
2018-08-04T07:58:34.894Z,49.01
2018-08-04T07:59:38.269Z,49.08
2018-08-04T08:00:41.688Z,48.53
2018-08-04T08:01:45.073Z,48.98
2018-08-04T08:02:48.459Z,48.49
2018-08-04T08:03:51.854Z,48.51
2018-08-04T08:04:55.282Z,48.48
2018-08-04T08:05:58.684Z,48.74
2018-08-04T08:07:02.077Z,48.69
2018-08-04T08:08:05.500Z,48.37
2018-08-04T08:09:09.545Z,48.71
2018-08-04T08:10:12.930Z,48.46
2018-08-04T08:11:16.426Z,48.34
2018-08-04T08:12:19.846Z,49.09
2018-08-04T08:13:23.262Z,48.78
2018-08-04T08:14:26.671Z,49.06
2018-08-04T08:15:30.069Z,48.96
2018-08-04T08:16:33.565Z,49.00
2018-08-04T08:17:37.280Z,48.78
2018-08-04T08:18:40.700Z,48.81
2018-08-04T08:19:44.251Z,48.76
2018-08-04T08:20:47.657Z,48.39
2018-08-04T08:21:51.119Z,48.69
2018-08-04T08:22:54.534Z,49.14
2018-08-04T08:23:57.938Z,48.74
2018-08-04T08:25:01.401Z,48.69
2018-08-04T08:26:10.982Z,48.43
2018-08-04T08:27:14.397Z,48.38
2018-08-04T08:28:17.810Z,49.01
2018-08-04T08:29:21.208Z,49.00
2018-08-04T08:30:24.603Z,48.39
2018-08-04T08:31:28.041Z,48.68
2018-08-04T08:32:31.523Z,48.60
2018-08-04T08:33:34.901Z,48.59
2018-08-04T08:34:38.332Z,48.81
2018-08-04T08:35:41.787Z,48.40
2018-08-04T08:36:45.207Z,48.78
2018-08-04T08:37:48.668Z,48.83
2018-08-04T08:38:52.080Z,48.74
2018-08-04T08:39:55.456Z,49.09
2018-08-04T08:40:59.206Z,48.60
2018-08-04T08:42:02.631Z,48.91
2018-08-04T08:43:06.148Z,48.55
2018-08-04T08:44:09.548Z,48.96
2018-08-04T08:45:12.952Z,48.76
2018-08-04T08:46:16.380Z,48.79
2018-08-04T08:47:19.879Z,48.44
2018-08-04T08:48:23.393Z,48.29
2018-08-04T08:49:26.823Z,48.25
2018-08-04T08:50:30.208Z,48.53
2018-08-04T08:51:33.612Z,48.35
2018-08-04T08:52:37.270Z,48.33
2018-08-04T08:53:40.689Z,48.32
2018-08-04T08:54:44.353Z,48.85
2018-08-04T08:55:47.753Z,47.96
2018-08-04T08:56:51.121Z,48.25
2018-08-04T08:57:54.557Z,49.10
2018-08-04T08:58:58.010Z,48.37
2018-08-04T09:00:01.449Z,48.98
2018-08-04T09:01:04.892Z,48.93
2018-08-04T09:02:08.401Z,48.36
2018-08-04T09:03:11.800Z,48.86
2018-08-04T09:04:15.241Z,48.24
2018-08-04T09:05:18.659Z,48.48
2018-08-04T09:06:22.072Z,48.55
2018-08-04T09:07:25.530Z,48.96
2018-08-04T09:08:28.979Z,48.91
2018-08-04T09:09:32.397Z,48.38
2018-08-04T09:10:35.818Z,48.89
2018-08-04T09:11:39.286Z,48.63
2018-08-04T09:12:43.124Z,48.48
2018-08-04T09:13:46.730Z,47.86
2018-08-04T09:14:50.184Z,48.48
2018-08-04T09:15:53.590Z,48.28
2018-08-04T09:16:57.019Z,48.88
2018-08-04T09:18:00.547Z,48.96
2018-08-04T09:19:03.982Z,48.55
2018-08-04T09:20:08.740Z,48.27
2018-08-04T09:21:12.169Z,48.44
2018-08-04T09:22:15.573Z,48.47
2018-08-04T09:23:18.968Z,48.45
2018-08-04T09:24:22.384Z,48.14
2018-08-04T09:25:25.830Z,48.20
2018-08-04T09:26:29.230Z,48.73
2018-08-04T09:27:32.642Z,48.83
2018-08-04T09:28:36.020Z,48.13
2018-08-04T09:29:39.463Z,48.53
2018-08-04T09:30:42.899Z,48.88
2018-08-04T09:31:46.347Z,48.14
2018-08-04T09:32:49.754Z,48.40
2018-08-04T09:33:53.163Z,48.16
2018-08-04T09:34:56.562Z,48.05
2018-08-04T09:35:59.972Z,48.06
2018-08-04T09:37:03.368Z,48.56
2018-08-04T09:38:06.940Z,47.81
2018-08-04T09:39:12.516Z,48.38
2018-08-04T09:40:16.442Z,48.22
2018-08-04T09:41:19.835Z,48.78
2018-08-04T09:42:23.222Z,48.77
2018-08-04T09:43:26.629Z,48.54
2018-08-04T09:44:30.027Z,48.70
2018-08-04T09:45:33.449Z,49.04
2018-08-04T09:46:37.101Z,48.11
2018-08-04T09:47:41.110Z,48.31
2018-08-04T09:48:44.500Z,48.02
2018-08-04T09:49:47.908Z,48.33
2018-08-04T09:50:51.335Z,48.55
2018-08-04T09:51:54.769Z,48.71
2018-08-04T09:52:58.162Z,47.95
2018-08-04T09:54:01.568Z,48.05
2018-08-04T09:55:05.911Z,48.02
2018-08-04T09:56:09.335Z,48.66
2018-08-04T09:57:12.742Z,48.31
2018-08-04T09:58:16.114Z,48.30
2018-08-04T09:59:19.815Z,47.56
2018-08-04T10:01:31.389Z,48.61
2018-08-04T10:02:34.762Z,47.85
2018-08-04T10:03:38.135Z,47.99
2018-08-04T10:04:41.927Z,48.89
2018-08-04T10:05:45.330Z,48.01
2018-08-04T10:06:48.725Z,47.88
2018-08-04T10:07:52.143Z,48.38
2018-08-04T10:08:55.621Z,47.88
2018-08-04T10:09:59.029Z,48.01
2018-08-04T10:11:02.444Z,48.58
2018-08-04T10:12:05.888Z,48.13
2018-08-04T10:13:09.283Z,47.98
2018-08-04T10:14:12.680Z,48.26
2018-08-04T10:15:16.162Z,47.88
2018-08-04T10:16:19.538Z,48.46
2018-08-04T10:17:22.965Z,48.34
2018-08-04T10:18:26.388Z,47.98
2018-08-04T10:19:29.799Z,47.83
2018-08-04T10:20:33.202Z,47.82
2018-08-04T10:21:36.620Z,48.23
2018-08-04T10:22:40.097Z,48.34
2018-08-04T10:23:43.657Z,48.37
2018-08-04T10:24:47.059Z,47.84
2018-08-04T10:25:50.499Z,47.90
2018-08-04T10:26:53.922Z,48.12
2018-08-04T10:27:57.342Z,48.29
2018-08-04T10:29:00.764Z,48.28
2018-08-04T10:30:05.389Z,48.66
2018-08-04T10:31:08.809Z,48.41
2018-08-04T10:32:12.326Z,47.79
2018-08-04T10:33:15.965Z,47.77
2018-08-04T10:34:19.401Z,47.79
2018-08-04T10:35:22.858Z,47.90
2018-08-04T10:36:26.311Z,47.90
2018-08-04T10:37:29.682Z,47.85
2018-08-04T10:38:33.283Z,47.80
2018-08-04T10:39:36.684Z,48.33
2018-08-04T10:40:40.218Z,48.03
2018-08-04T10:41:43.671Z,47.98
2018-08-04T10:42:47.083Z,47.86
2018-08-04T10:43:50.515Z,48.12
2018-08-04T10:44:53.881Z,47.61
2018-08-04T10:45:57.291Z,47.61
2018-08-04T10:47:00.674Z,48.53
2018-08-04T10:48:04.077Z,48.30
2018-08-04T10:49:07.513Z,48.17
2018-08-04T10:50:10.945Z,48.16
2018-08-04T10:51:14.362Z,47.67
2018-08-04T10:52:17.765Z,47.59
2018-08-04T10:53:21.156Z,47.69
2018-08-04T10:54:24.596Z,47.91
2018-08-04T10:55:28.021Z,47.91
2018-08-04T10:56:31.456Z,48.22
2018-08-04T10:57:34.858Z,47.84
2018-08-04T10:58:38.262Z,47.69
2018-08-04T10:59:41.676Z,47.55
2018-08-04T11:00:45.127Z,48.07
2018-08-04T11:01:48.677Z,47.44
2018-08-04T11:02:52.094Z,47.77
2018-08-04T11:03:55.529Z,47.46
2018-08-04T11:04:58.926Z,47.54
2018-08-04T11:06:02.320Z,47.85
2018-08-04T11:07:05.764Z,47.78
2018-08-04T11:08:09.149Z,47.52
2018-08-04T11:09:12.771Z,47.98
2018-08-04T11:10:16.200Z,47.70
2018-08-04T11:11:19.590Z,47.52
2018-08-04T11:12:23.146Z,47.99
2018-08-04T11:13:26.536Z,48.10
2018-08-04T11:14:29.976Z,47.66
2018-08-04T11:15:33.413Z,47.44
2018-08-04T11:16:37.128Z,47.73
2018-08-04T11:17:40.540Z,48.12
2018-08-04T11:18:43.979Z,47.56
2018-08-04T11:19:47.466Z,47.95
2018-08-04T11:20:50.892Z,47.61
2018-08-04T11:21:54.310Z,47.42
2018-08-04T11:22:57.733Z,48.06
2018-08-04T11:24:01.186Z,47.69
2018-08-04T11:25:04.748Z,47.82
2018-08-04T11:26:08.202Z,47.99
2018-08-04T11:27:11.653Z,47.58
2018-08-04T11:28:15.114Z,47.32
2018-08-04T11:29:18.508Z,48.32
2018-08-04T11:30:21.932Z,47.73
2018-08-04T11:31:25.364Z,47.91
2018-08-04T11:32:28.940Z,47.62
2018-08-04T11:33:32.364Z,47.76
2018-08-04T11:34:35.801Z,47.53
2018-08-04T11:35:39.220Z,47.65
2018-08-04T11:36:42.938Z,47.90
2018-08-04T11:37:46.398Z,47.92
2018-08-04T11:38:49.799Z,47.16
2018-08-04T11:39:53.551Z,47.72
2018-08-04T11:40:56.951Z,47.65
2018-08-04T11:42:00.395Z,47.73
2018-08-04T11:43:03.828Z,47.07
2018-08-04T11:44:07.348Z,47.45
2018-08-04T11:45:10.869Z,47.65
2018-08-04T11:46:14.288Z,47.17
2018-08-04T11:47:17.706Z,47.40
2018-08-04T11:48:21.096Z,47.19
2018-08-04T11:49:24.549Z,47.79
2018-08-04T11:50:27.964Z,47.77
2018-08-04T11:51:31.508Z,47.38
2018-08-04T11:52:34.935Z,47.45
2018-08-04T11:53:38.461Z,47.68
2018-08-04T11:54:41.866Z,47.02
2018-08-04T11:55:45.253Z,47.13
2018-08-04T11:56:48.683Z,47.09
2018-08-04T11:57:52.085Z,47.62
2018-08-04T11:58:55.492Z,47.38
2018-08-04T11:59:58.866Z,47.55
2018-08-04T12:01:02.346Z,47.11
2018-08-04T12:02:05.788Z,47.51
2018-08-04T12:03:09.202Z,47.29
2018-08-04T12:04:12.632Z,47.78
2018-08-04T12:05:16.067Z,47.04
2018-08-04T12:06:19.474Z,46.89
2018-08-04T12:07:22.873Z,47.32
2018-08-04T12:08:26.285Z,47.28
2018-08-04T12:09:29.661Z,47.38
2018-08-04T12:10:33.073Z,47.62
2018-08-04T12:11:36.498Z,47.51
2018-08-04T12:12:39.961Z,47.60
2018-08-04T12:13:43.376Z,47.50
2018-08-04T12:14:46.764Z,47.12
2018-08-04T12:15:50.157Z,46.44
2018-08-04T12:16:53.598Z,47.28
2018-08-04T12:17:57.036Z,47.48
2018-08-04T12:19:00.420Z,46.97
2018-08-04T12:20:03.901Z,47.11
2018-08-04T12:21:07.333Z,47.50
2018-08-04T12:22:10.799Z,47.28
2018-08-04T12:23:14.237Z,47.42
2018-08-04T12:24:17.783Z,47.61
2018-08-04T12:25:21.189Z,46.88
2018-08-04T12:26:24.580Z,46.90
2018-08-04T12:27:27.984Z,47.12
2018-08-04T12:28:31.403Z,46.99
2018-08-04T12:29:34.826Z,46.98
2018-08-04T12:30:38.217Z,47.26
2018-08-04T12:31:41.658Z,46.85
2018-08-04T12:32:45.075Z,47.18
2018-08-04T12:33:48.563Z,46.87
2018-08-04T12:34:51.969Z,46.88
2018-08-04T12:35:55.395Z,46.83
2018-08-04T12:36:58.769Z,46.98
2018-08-04T12:38:02.197Z,47.40
2018-08-04T12:39:08.325Z,47.22
2018-08-04T12:40:11.772Z,47.42
2018-08-04T12:41:15.371Z,47.30
2018-08-04T12:42:18.771Z,47.14
2018-08-04T12:43:22.189Z,47.13
2018-08-04T12:44:25.592Z,46.88
2018-08-04T12:45:29.072Z,47.26
2018-08-04T12:46:32.452Z,46.87
2018-08-04T12:47:35.866Z,47.69
2018-08-04T12:48:39.284Z,46.88
2018-08-04T12:49:42.696Z,46.90
2018-08-04T12:50:46.109Z,46.90
2018-08-04T12:51:49.527Z,47.09
2018-08-04T12:52:52.947Z,47.13
2018-08-04T12:53:56.352Z,47.14
2018-08-04T12:54:59.873Z,47.10
2018-08-04T12:56:03.281Z,46.95
2018-08-04T12:57:06.662Z,47.39
2018-08-04T12:58:10.099Z,47.35
2018-08-04T12:59:13.509Z,47.40
2018-08-04T13:00:17.013Z,46.80
2018-08-04T13:01:20.468Z,47.07
2018-08-04T13:02:23.863Z,46.50
2018-08-04T13:03:27.263Z,47.27
2018-08-04T13:04:30.689Z,47.17
2018-08-04T13:05:34.111Z,47.08
2018-08-04T13:06:37.548Z,47.11
2018-08-04T13:07:40.979Z,47.08
2018-08-04T13:08:44.522Z,47.37
2018-08-04T13:09:47.904Z,46.75
2018-08-04T13:10:51.330Z,46.76
2018-08-04T13:11:54.863Z,46.79
2018-08-04T13:12:58.188Z,46.74
2018-08-04T13:14:01.582Z,47.24
2018-08-04T13:15:06.388Z,47.36
2018-08-04T13:16:09.919Z,47.03
2018-08-04T13:17:13.324Z,46.90
2018-08-04T13:18:16.732Z,47.18
2018-08-04T13:19:20.150Z,46.65
2018-08-04T13:20:23.589Z,46.98
2018-08-04T13:21:26.973Z,46.30
2018-08-04T13:22:30.371Z,47.01
2018-08-04T13:23:33.798Z,46.69
2018-08-04T13:24:37.224Z,47.32
2018-08-04T13:25:40.674Z,46.90
2018-08-04T13:26:44.134Z,47.08
2018-08-04T13:27:47.536Z,47.22
2018-08-04T13:28:51.072Z,46.69
2018-08-04T13:29:54.511Z,46.94
2018-08-04T13:30:57.936Z,46.92
2018-08-04T13:32:01.333Z,47.04
2018-08-04T13:33:04.736Z,47.02
2018-08-04T13:34:08.241Z,46.79
2018-08-04T13:35:11.639Z,46.78
2018-08-04T13:36:15.120Z,47.01
2018-08-04T13:37:18.606Z,46.94
2018-08-04T13:38:22.023Z,47.27